Time;durP1;ratioP1;P1;durP2;ratioP2;P2;SDS_P1;SDS_P2;PMS_P1;PMS_P2;Temp;Humidity;BMP_temperature;BMP_pressure;BME280_temperature;BME280_humidity;BME280_pressure;Samples;Min_cycle;Max_cycle;Signal;HPM_P1;HPM_P2
2022/11/07 00:00:57;;;;;;;;;2.50;1.25;;;;;;;;5103057;27;62420;-76
2022/11/07 00:03:22;;;;;;;;;0.00;0.00;;;;;;;;5102382;27;61807;-77
2022/11/07 00:05:47;;;;;;;;;3.50;1.75;;;;;;;;5083734;27;61902;-76
2022/11/07 00:08:12;;;;;;;;;3.25;1.50;;;;;;;;5083717;27;61998;-76
2022/11/07 00:10:38;;;;;;;;;2.50;2.50;;;;;;;;5097654;27;61889;-76
2022/11/07 00:13:03;;;;;;;;;4.00;2.50;;;;;;;;5080948;28;61803;-76
2022/11/07 00:15:28;;;;;;;;;3.75;0.25;;;;;;;;5063830;28;61888;-76
2022/11/07 00:17:54;;;;;;;;;1.50;1.50;;;;;;;;5080709;27;62059;-76
2022/11/07 00:20:19;;;;;;;;;2.25;0.75;;;;;;;;5081744;28;61841;-76
2022/11/07 00:22:44;;;;;;;;;1.00;1.00;;;;;;;;5094728;27;61775;-76
2022/11/07 00:25:09;;;;;;;;;2.75;1.50;;;;;;;;5102227;27;61784;-76
2022/11/07 00:27:35;;;;;;;;;3.75;3.00;;;;;;;;5102153;27;62095;-76
2022/11/07 00:30:00;;;;;;;;;6.25;0.00;;;;;;;;5084062;27;61910;-76
2022/11/07 00:32:25;;;;;;;;;4.00;1.00;;;;;;;;5101738;27;62905;-76
2022/11/07 00:34:51;;;;;;;;;3.25;1.50;;;;;;;;5083413;27;61888;-76
2022/11/07 00:37:16;;;;;;;;;2.00;1.00;;;;;;;;5101774;27;61882;-76
2022/11/07 00:39:41;;;;;;;;;8.75;2.00;;;;;;;;5083816;27;62058;-76
2022/11/07 00:42:06;;;;;;;;;7.00;2.00;;;;;;;;5101181;27;62704;-76
2022/11/07 00:44:32;;;;;;;;;3.50;1.00;;;;;;;;5102118;27;61801;-76
2022/11/07 00:46:57;;;;;;;;;5.25;2.00;;;;;;;;5101952;27;61820;-76
2022/11/07 00:49:22;;;;;;;;;2.50;1.00;;;;;;;;5101721;27;62196;-76
2022/11/07 00:51:47;;;;;;;;;2.50;1.50;;;;;;;;5100891;27;62756;-76
2022/11/07 00:54:13;;;;;;;;;1.25;1.00;;;;;;;;5083627;27;61836;-76
2022/11/07 00:56:38;;;;;;;;;4.75;2.00;;;;;;;;5085711;27;61874;-76
2022/11/07 00:59:04;;;;;;;;;6.00;2.00;;;;;;;;5086949;27;62045;-76
2022/11/07 01:01:30;;;;;;;;;1.25;1.00;;;;;;;;5086467;27;61854;-76
2022/11/07 01:06:41;;;;;;;;;2.00;1.75;;;;;;;;5104880;27;61927;-76
2022/11/07 01:09:07;;;;;;;;;3.00;2.00;;;;;;;;5084090;27;61734;-76
2022/11/07 01:11:35;;;;;;;;;3.00;1.00;;;;;;;;5086020;27;62991;-77
2022/11/07 01:14:01;;;;;;;;;1.75;1.00;;;;;;;;5086342;27;61957;-76
2022/11/07 01:16:27;;;;;;;;;2.00;1.00;;;;;;;;5105128;27;61879;-76
2022/11/07 01:18:52;;;;;;;;;1.00;1.00;;;;;;;;5086156;27;62158;-76
2022/11/07 01:21:18;;;;;;;;;2.75;1.75;;;;;;;;5104370;27;62998;-76
2022/11/07 01:23:44;;;;;;;;;7.25;1.50;;;;;;;;5085820;27;61839;-76
2022/11/07 01:26:10;;;;;;;;;1.50;0.00;;;;;;;;5105042;27;61753;-76
2022/11/07 01:28:37;;;;;;;;;2.00;1.00;;;;;;;;5087000;27;61807;-76
2022/11/07 01:31:03;;;;;;;;;1.25;1.00;;;;;;;;5104110;27;61630;-76
2022/11/07 01:33:29;;;;;;;;;4.00;1.00;;;;;;;;5104941;27;61788;-76
2022/11/07 01:35:54;;;;;;;;;1.00;1.00;;;;;;;;5104294;27;61693;-76
2022/11/07 01:38:19;;;;;;;;;1.00;1.00;;;;;;;;5085886;27;61758;-76
2022/11/07 01:43:57;;;;;;;;;1.00;1.00;;;;;;;;5104706;27;61733;-76
2022/11/07 01:46:41;;;;;;;;;4.00;1.00;;;;;;;;5021185;28;62230;-76
2022/11/07 01:49:07;;;;;;;;;9.25;3.00;;;;;;;;5020769;28;61832;-76
2022/11/07 01:51:34;;;;;;;;;3.00;0.00;;;;;;;;5020599;28;62140;-76
2022/11/07 01:54:00;;;;;;;;;0.00;0.00;;;;;;;;5003755;28;61788;-76
2022/11/07 01:56:27;;;;;;;;;1.00;1.00;;;;;;;;5004291;28;61978;-76
2022/11/07 01:58:53;;;;;;;;;1.75;1.00;;;;;;;;5004440;28;62187;-77
2022/11/07 02:01:18;;;;;;;;;5.00;1.00;;;;;;;;5020331;28;61902;-76
2022/11/07 02:03:44;;;;;;;;;2.50;2.00;;;;;;;;5021108;28;61834;-76
2022/11/07 02:06:15;;;;;;;;;2.25;1.00;;;;;;;;5019929;28;61823;-76
2022/11/07 02:08:41;;;;;;;;;5.75;1.50;;;;;;;;5020681;28;62265;-76
2022/11/07 02:11:08;;;;;;;;;4.25;1.75;;;;;;;;5020130;28;62707;-76
2022/11/07 02:13:33;;;;;;;;;2.00;2.00;;;;;;;;5021090;28;61954;-76
2022/11/07 02:16:00;;;;;;;;;7.75;1.00;;;;;;;;5020450;28;62113;-76
2022/11/07 02:18:26;;;;;;;;;1.00;1.00;;;;;;;;5020778;28;61962;-76
2022/11/07 02:20:53;;;;;;;;;1.00;1.00;;;;;;;;5020104;28;61864;-76
2022/11/07 02:23:18;;;;;;;;;2.00;1.00;;;;;;;;5064570;27;61860;-76
2022/11/07 02:25:44;;;;;;;;;4.50;1.00;;;;;;;;5083422;28;61934;-76
2022/11/07 02:28:10;;;;;;;;;1.25;0.25;;;;;;;;5083728;28;61680;-76
2022/11/07 02:30:37;;;;;;;;;2.75;0.75;;;;;;;;5082913;28;62079;-76
2022/11/07 02:33:03;;;;;;;;;1.00;0.75;;;;;;;;5064796;28;61854;-76
2022/11/07 02:35:37;;;;;;;;;5.75;2.00;;;;;;;;5083403;28;62072;-76
2022/11/07 02:38:08;;;;;;;;;2.25;1.25;;;;;;;;5064158;28;61914;-76
2022/11/07 02:40:34;;;;;;;;;1.00;1.00;;;;;;;;5082976;27;61824;-76
2022/11/07 02:42:59;;;;;;;;;1.75;0.25;;;;;;;;5064732;28;61764;-76
2022/11/07 02:45:43;;;;;;;;;1.00;1.00;;;;;;;;5083251;28;61705;-76
2022/11/07 02:48:09;;;;;;;;;4.50;1.00;;;;;;;;5083286;27;62054;-76
2022/11/07 02:50:34;;;;;;;;;2.00;1.00;;;;;;;;5063587;28;61774;-76
2022/11/07 02:52:59;;;;;;;;;4.50;1.25;;;;;;;;5082639;27;61920;-76
2022/11/07 02:55:25;;;;;;;;;1.50;0.25;;;;;;;;5083010;28;61618;-76
2022/11/07 02:57:50;;;;;;;;;2.00;0.00;;;;;;;;5064807;27;61711;-76
2022/11/07 03:00:15;;;;;;;;;5.25;1.75;;;;;;;;5082123;28;62621;-76
2022/11/07 03:02:48;;;;;;;;;2.50;0.50;;;;;;;;5083169;28;61747;-76
2022/11/07 03:05:19;;;;;;;;;1.50;1.25;;;;;;;;5082355;28;61970;-76
2022/11/07 03:07:45;;;;;;;;;3.25;1.00;;;;;;;;5082721;27;61948;-76
2022/11/07 03:10:10;;;;;;;;;2.00;0.25;;;;;;;;5093477;27;63140;-76
2022/11/07 03:12:36;;;;;;;;;3.50;1.75;;;;;;;;5084958;27;62226;-76
2022/11/07 03:15:01;;;;;;;;;4.75;1.00;;;;;;;;5103357;27;61879;-76
2022/11/07 03:17:26;;;;;;;;;3.50;2.00;;;;;;;;5102919;27;62010;-76
2022/11/07 03:19:52;;;;;;;;;1.50;1.50;;;;;;;;5101955;27;62301;-76
2022/11/07 03:22:17;;;;;;;;;3.75;1.50;;;;;;;;5102728;27;61942;-76
2022/11/07 03:24:42;;;;;;;;;5.75;1.50;;;;;;;;5103030;27;61805;-76
2022/11/07 03:27:07;;;;;;;;;0.25;0.00;;;;;;;;5084603;27;61851;-76
2022/11/07 03:29:33;;;;;;;;;0.75;0.75;;;;;;;;5102706;27;61792;-76
2022/11/07 03:31:58;;;;;;;;;2.25;1.25;;;;;;;;5102906;27;62051;-76
2022/11/07 03:34:23;;;;;;;;;5.00;1.75;;;;;;;;5102594;27;62052;-76
2022/11/07 03:36:48;;;;;;;;;3.25;1.75;;;;;;;;5084011;27;61843;-76
2022/11/07 03:39:14;;;;;;;;;2.75;1.00;;;;;;;;5102039;27;61988;-76
2022/11/07 03:41:39;;;;;;;;;4.75;0.75;;;;;;;;5102969;27;61745;-76
2022/11/07 03:44:04;;;;;;;;;1.50;1.25;;;;;;;;5102853;27;61737;-76
2022/11/07 03:46:30;;;;;;;;;2.25;1.25;;;;;;;;5103080;27;62020;-76
2022/11/07 03:48:55;;;;;;;;;3.25;1.00;;;;;;;;5101186;27;61804;-76
2022/11/07 03:51:20;;;;;;;;;1.50;0.75;;;;;;;;5102623;27;61689;-76
2022/11/07 03:53:46;;;;;;;;;2.25;1.00;;;;;;;;5084023;27;61720;-76
2022/11/07 03:56:11;;;;;;;;;3.00;1.25;;;;;;;;5084301;27;62210;-76
2022/11/07 03:58:37;;;;;;;;;2.75;1.25;;;;;;;;5083233;27;63158;-76
2022/11/07 04:01:02;;;;;;;;;3.50;1.00;;;;;;;;5102527;27;61898;-76
2022/11/07 04:03:28;;;;;;;;;4.75;1.00;;;;;;;;5102468;27;61740;-76
2022/11/07 04:05:53;;;;;;;;;3.00;2.00;;;;;;;;5084398;27;62040;-76
2022/11/07 04:08:19;;;;;;;;;4.25;1.25;;;;;;;;5101229;27;62833;-76
2022/11/07 04:10:44;;;;;;;;;3.75;1.50;;;;;;;;5083728;27;61815;-76
2022/11/07 04:18:37;;;;;;;;;3.00;1.25;;;;;;;;5101144;27;62300;-76
2022/11/07 04:21:02;;;;;;;;;3.50;2.75;;;;;;;;5101980;27;61662;-76
2022/11/07 04:23:28;;;;;;;;;2.00;2.00;;;;;;;;5083507;27;61936;-76
2022/11/07 04:28:37;;;;;;;;;1.00;1.00;;;;;;;;5101948;27;61894;-76
2022/11/07 04:31:02;;;;;;;;;4.25;2.25;;;;;;;;5086638;27;61979;-76
2022/11/07 04:33:27;;;;;;;;;3.75;1.00;;;;;;;;5086744;27;62194;-76
2022/11/07 04:35:52;;;;;;;;;1.50;1.50;;;;;;;;5105941;27;61764;-76
2022/11/07 04:38:18;;;;;;;;;2.75;1.00;;;;;;;;5104761;27;62883;-75
2022/11/07 04:40:43;;;;;;;;;1.00;1.00;;;;;;;;5087519;27;61956;-76
2022/11/07 04:43:08;;;;;;;;;2.25;1.00;;;;;;;;5105636;27;61856;-76
2022/11/07 04:45:37;;;;;;;;;2.25;1.00;;;;;;;;5105797;27;61968;-77
2022/11/07 04:48:03;;;;;;;;;1.00;1.00;;;;;;;;5085936;27;63594;-76
2022/11/07 04:50:28;;;;;;;;;2.25;1.00;;;;;;;;5085455;27;61649;-76
2022/11/07 04:52:54;;;;;;;;;1.00;1.00;;;;;;;;5105565;27;61812;-76
2022/11/07 04:55:21;;;;;;;;;1.00;1.00;;;;;;;;5105425;27;62106;-76
2022/11/07 04:57:46;;;;;;;;;3.25;1.00;;;;;;;;5086244;27;63823;-76
2022/11/07 05:00:12;;;;;;;;;4.00;1.00;;;;;;;;5105112;27;61706;-76
2022/11/07 05:02:37;;;;;;;;;5.00;2.00;;;;;;;;5086552;27;61919;-76
2022/11/07 05:05:03;;;;;;;;;4.25;2.00;;;;;;;;5105684;27;61800;-76
2022/11/07 05:07:28;;;;;;;;;2.50;1.00;;;;;;;;5085182;27;63478;-76
2022/11/07 05:09:53;;;;;;;;;1.75;0.75;;;;;;;;5105223;27;62000;-76
2022/11/07 05:12:18;;;;;;;;;3.00;1.00;;;;;;;;5105176;27;61909;-76
2022/11/07 05:14:44;;;;;;;;;2.00;0.00;;;;;;;;5087047;27;61839;-76
2022/11/07 05:17:12;;;;;;;;;1.50;1.00;;;;;;;;5103915;27;61840;-76
2022/11/07 05:19:38;;;;;;;;;3.00;0.00;;;;;;;;5104764;27;61665;-76
2022/11/07 05:24:47;;;;;;;;;0.00;0.00;;;;;;;;5105788;27;61788;-76
2022/11/07 05:27:19;;;;;;;;;2.25;1.00;;;;;;;;5085385;27;63389;-76
2022/11/07 05:29:44;;;;;;;;;2.00;0.00;;;;;;;;5104757;27;61944;-77
2022/11/07 05:32:09;;;;;;;;;1.00;1.00;;;;;;;;5086622;27;61911;-76
2022/11/07 05:34:34;;;;;;;;;0.50;0.50;;;;;;;;5104906;27;61731;-76
2022/11/07 05:37:00;;;;;;;;;1.00;1.00;;;;;;;;5103856;27;61909;-76
2022/11/07 05:39:25;;;;;;;;;1.75;1.75;;;;;;;;5086050;27;62064;-76
2022/11/07 05:41:50;;;;;;;;;0.25;0.25;;;;;;;;5086462;27;62078;-76
2022/11/07 05:44:16;;;;;;;;;0.00;0.00;;;;;;;;5085546;27;61832;-76
2022/11/07 05:46:41;;;;;;;;;0.25;0.00;;;;;;;;5104096;27;61762;-76
2022/11/07 05:49:06;;;;;;;;;2.00;0.00;;;;;;;;5104300;27;61923;-76
2022/11/07 05:51:31;;;;;;;;;1.00;1.00;;;;;;;;5086044;27;62008;-76
2022/11/07 05:53:57;;;;;;;;;2.50;0.75;;;;;;;;5104250;27;61860;-76
2022/11/07 05:56:22;;;;;;;;;2.00;0.50;;;;;;;;5103654;27;61682;-76
2022/11/07 05:58:47;;;;;;;;;2.00;2.00;;;;;;;;5085664;27;61842;-76
2022/11/07 06:01:13;;;;;;;;;4.00;1.00;;;;;;;;5104221;27;61957;-76
2022/11/07 06:03:38;;;;;;;;;1.00;1.00;;;;;;;;5104531;27;62083;-77
2022/11/07 06:06:04;;;;;;;;;1.75;0.00;;;;;;;;5103302;27;62077;-79
2022/11/07 06:08:29;;;;;;;;;1.00;0.00;;;;;;;;5103824;27;62027;-80
2022/11/07 06:10:54;;;;;;;;;0.00;0.00;;;;;;;;5101566;27;61978;-80
2022/11/07 06:13:20;;;;;;;;;0.00;0.00;;;;;;;;5103984;27;61739;-79
2022/11/07 06:15:45;;;;;;;;;2.75;1.00;;;;;;;;5084533;27;63555;-80
2022/11/07 06:18:13;;;;;;;;;0.00;0.00;;;;;;;;5104575;27;61779;-79
2022/11/07 06:20:38;;;;;;;;;7.75;1.75;;;;;;;;5104180;27;61861;-79
2022/11/07 06:23:05;;;;;;;;;0.25;0.00;;;;;;;;5103610;27;61903;-79
2022/11/07 06:25:30;;;;;;;;;2.50;1.00;;;;;;;;5105457;27;61947;-83
2022/11/07 06:27:59;;;;;;;;;2.50;0.00;;;;;;;;5103119;27;62043;-80
2022/11/07 06:30:24;;;;;;;;;3.50;1.00;;;;;;;;5085641;27;61885;-79
2022/11/07 06:32:50;;;;;;;;;3.25;2.00;;;;;;;;5102959;27;61846;-79
2022/11/07 06:35:15;;;;;;;;;5.00;0.00;;;;;;;;5084903;27;61771;-80
2022/11/07 06:37:40;;;;;;;;;2.25;1.00;;;;;;;;5085116;27;61958;-77
2022/11/07 06:40:06;;;;;;;;;1.25;1.25;;;;;;;;5084225;27;61827;-79
2022/11/07 06:42:31;;;;;;;;;1.25;0.25;;;;;;;;5081512;27;62290;-78
2022/11/07 06:44:56;;;;;;;;;7.00;1.00;;;;;;;;5101643;27;61785;-77
2022/11/07 06:47:22;;;;;;;;;3.50;1.00;;;;;;;;5082325;27;62153;-77
2022/11/07 06:49:47;;;;;;;;;2.00;1.00;;;;;;;;5083017;27;61916;-77
2022/11/07 06:52:12;;;;;;;;;3.00;1.50;;;;;;;;5102405;27;61798;-77
2022/11/07 06:54:38;;;;;;;;;2.50;1.00;;;;;;;;5101662;27;61764;-77
2022/11/07 06:57:03;;;;;;;;;4.50;1.00;;;;;;;;5081771;27;61913;-76
2022/11/07 06:59:28;;;;;;;;;3.75;1.00;;;;;;;;5101409;27;61966;-77
2022/11/07 07:01:53;;;;;;;;;1.50;0.00;;;;;;;;5102793;27;61784;-77
2022/11/07 07:04:19;;;;;;;;;2.00;2.00;;;;;;;;5102562;27;62841;-76
2022/11/07 07:06:44;;;;;;;;;3.00;2.00;;;;;;;;5083656;27;61807;-77
2022/11/07 07:09:10;;;;;;;;;2.00;2.00;;;;;;;;5099738;27;61810;-78
2022/11/07 07:11:38;;;;;;;;;2.25;1.00;;;;;;;;5102058;27;62195;-77
2022/11/07 07:14:04;;;;;;;;;1.25;1.25;;;;;;;;5083633;27;63415;-77
2022/11/07 07:16:30;;;;;;;;;0.00;0.00;;;;;;;;5084237;27;61997;-77
2022/11/07 07:18:56;;;;;;;;;3.00;1.00;;;;;;;;5082942;27;61729;-77
2022/11/07 07:21:21;;;;;;;;;2.25;1.00;;;;;;;;5084235;27;61779;-77
2022/11/07 07:23:47;;;;;;;;;4.00;1.75;;;;;;;;5101518;27;62107;-76
2022/11/07 07:26:13;;;;;;;;;1.50;1.50;;;;;;;;5084479;27;62228;-76
2022/11/07 07:28:39;;;;;;;;;6.25;1.00;;;;;;;;5083791;27;61915;-76
2022/11/07 07:31:13;;;;;;;;;1.00;1.00;;;;;;;;5084744;27;61933;-79
2022/11/07 07:33:39;;;;;;;;;3.25;1.25;;;;;;;;5083065;27;63896;-78
2022/11/07 07:36:05;;;;;;;;;4.25;1.00;;;;;;;;5100137;27;61949;-75
2022/11/07 07:38:30;;;;;;;;;3.00;1.50;;;;;;;;5081103;27;62045;-76
2022/11/07 07:40:57;;;;;;;;;1.50;1.50;;;;;;;;5081867;27;62390;-76
2022/11/07 07:43:22;;;;;;;;;1.25;1.00;;;;;;;;5100822;27;61910;-75
2022/11/07 07:45:47;;;;;;;;;4.50;2.00;;;;;;;;5100781;27;61737;-75
2022/11/07 07:48:13;;;;;;;;;1.00;1.00;;;;;;;;5102367;27;61929;-75
2022/11/07 07:50:38;;;;;;;;;2.00;1.00;;;;;;;;5083957;27;62091;-75
2022/11/07 07:53:03;;;;;;;;;7.75;0.50;;;;;;;;5101494;27;61911;-75
2022/11/07 07:55:28;;;;;;;;;6.25;6.00;;;;;;;;5083847;27;62274;-76
2022/11/07 07:57:54;;;;;;;;;4.50;2.75;;;;;;;;5102025;27;62152;-75
2022/11/07 08:00:19;;;;;;;;;7.00;1.00;;;;;;;;5102891;27;62076;-75
2022/11/07 08:02:44;;;;;;;;;0.75;0.75;;;;;;;;5083662;27;63574;-75
2022/11/07 08:05:10;;;;;;;;;0.75;0.75;;;;;;;;5085973;27;62134;-75
2022/11/07 08:07:35;;;;;;;;;1.00;0.00;;;;;;;;5106154;27;61953;-75
2022/11/07 08:10:01;;;;;;;;;2.00;2.00;;;;;;;;5084115;27;62208;-75
2022/11/07 08:12:26;;;;;;;;;3.25;1.00;;;;;;;;5105548;27;61914;-75
2022/11/07 08:14:51;;;;;;;;;1.25;1.00;;;;;;;;5106083;27;62023;-75
2022/11/07 08:17:16;;;;;;;;;0.75;0.75;;;;;;;;5106194;27;61937;-76
2022/11/07 08:19:42;;;;;;;;;4.00;1.00;;;;;;;;5105694;27;61981;-75
2022/11/07 08:22:07;;;;;;;;;3.75;1.00;;;;;;;;5104733;27;62044;-75
2022/11/07 08:24:32;;;;;;;;;3.00;2.00;;;;;;;;5105911;27;62350;-75
2022/11/07 08:26:57;;;;;;;;;1.00;1.00;;;;;;;;5087536;27;62168;-75
2022/11/07 08:29:23;;;;;;;;;2.00;1.00;;;;;;;;5106290;27;61921;-76
2022/11/07 08:31:49;;;;;;;;;3.00;2.25;;;;;;;;5105476;27;62500;-75
2022/11/07 08:34:15;;;;;;;;;3.00;0.25;;;;;;;;5105995;27;61787;-75
2022/11/07 08:36:40;;;;;;;;;2.75;1.00;;;;;;;;5105961;27;61886;-75
2022/11/07 08:39:05;;;;;;;;;2.00;1.00;;;;;;;;5105073;27;62148;-75
2022/11/07 08:41:30;;;;;;;;;1.75;1.75;;;;;;;;5105539;27;62018;-75
2022/11/07 08:43:55;;;;;;;;;1.00;1.00;;;;;;;;5105487;27;61780;-75
2022/11/07 08:46:21;;;;;;;;;1.00;1.00;;;;;;;;5087416;27;62022;-75
2022/11/07 08:48:46;;;;;;;;;3.25;2.00;;;;;;;;5105529;27;62407;-75
2022/11/07 08:51:11;;;;;;;;;1.25;0.00;;;;;;;;5086534;27;64603;-75
2022/11/07 08:53:37;;;;;;;;;0.75;0.00;;;;;;;;5086236;27;62005;-76
2022/11/07 08:56:05;;;;;;;;;1.00;1.00;;;;;;;;5105184;27;61759;-75
2022/11/07 08:58:31;;;;;;;;;3.75;1.50;;;;;;;;5105506;27;61745;-75
2022/11/07 09:00:57;;;;;;;;;3.25;1.25;;;;;;;;5103608;27;61800;-75
2022/11/07 09:03:22;;;;;;;;;6.75;2.00;;;;;;;;5086318;27;62021;-75
2022/11/07 09:05:48;;;;;;;;;3.00;2.00;;;;;;;;5086209;27;61937;-75
2022/11/07 09:08:13;;;;;;;;;10.25;3.50;;;;;;;;5103477;27;61987;-75
2022/11/07 09:10:38;;;;;;;;;6.75;2.00;;;;;;;;5084827;27;61835;-75
2022/11/07 09:13:04;;;;;;;;;2.50;1.75;;;;;;;;5104101;27;62148;-76
2022/11/07 09:15:29;;;;;;;;;2.50;1.00;;;;;;;;5085690;27;62057;-75
2022/11/07 09:17:54;;;;;;;;;2.00;0.00;;;;;;;;5085121;27;62255;-75
2022/11/07 09:20:20;;;;;;;;;2.00;1.00;;;;;;;;5103024;27;61958;-75
2022/11/07 09:22:45;;;;;;;;;7.50;0.00;;;;;;;;5103401;27;61836;-75
2022/11/07 09:25:10;;;;;;;;;6.00;1.00;;;;;;;;5103810;27;61719;-75
2022/11/07 09:27:36;;;;;;;;;0.00;0.00;;;;;;;;5104365;27;62029;-75
2022/11/07 09:30:02;;;;;;;;;2.00;0.50;;;;;;;;5103468;27;61780;-75
2022/11/07 09:32:27;;;;;;;;;2.00;1.00;;;;;;;;5085560;27;62338;-76
2022/11/07 09:34:53;;;;;;;;;0.75;0.75;;;;;;;;5103894;27;61871;-75
2022/11/07 09:37:20;;;;;;;;;1.00;0.00;;;;;;;;5084384;27;62329;-75
2022/11/07 09:39:45;;;;;;;;;5.50;1.00;;;;;;;;5103347;27;62600;-75
2022/11/07 09:42:21;;;;;;;;;2.00;1.00;;;;;;;;5103518;27;61927;-75
2022/11/07 09:44:54;;;;;;;;;1.00;1.00;;;;;;;;5103596;27;61913;-75
2022/11/07 09:47:25;;;;;;;;;1.00;0.00;;;;;;;;5084968;27;62201;-75
2022/11/07 09:49:54;;;;;;;;;1.00;1.00;;;;;;;;5084180;27;63763;-75
2022/11/07 09:52:22;;;;;;;;;1.50;0.50;;;;;;;;5102480;27;61728;-75
2022/11/07 09:54:54;;;;;;;;;0.25;0.25;;;;;;;;5103382;27;61722;-75
2022/11/07 09:57:19;;;;;;;;;4.25;1.00;;;;;;;;5103136;27;61697;-75
2022/11/07 09:59:50;;;;;;;;;3.50;0.00;;;;;;;;5035314;27;1306531;-75
2022/11/07 10:02:17;;;;;;;;;0.25;0.25;;;;;;;;5083972;27;61810;-76
2022/11/07 10:04:43;;;;;;;;;0.50;0.00;;;;;;;;5084313;27;61989;-75
2022/11/07 10:07:20;;;;;;;;;2.00;0.75;;;;;;;;5083255;27;62047;-75
2022/11/07 10:09:49;;;;;;;;;1.00;0.00;;;;;;;;5079243;28;63911;-75
2022/11/07 10:12:26;;;;;;;;;0.25;0.25;;;;;;;;5082165;28;61918;-75
2022/11/07 10:14:52;;;;;;;;;1.25;1.00;;;;;;;;5084019;27;62016;-75
2022/11/07 10:17:17;;;;;;;;;3.00;1.00;;;;;;;;5082328;27;61986;-75
2022/11/07 10:20:02;;;;;;;;;0.75;0.75;;;;;;;;5081642;28;63454;-75
2022/11/07 10:22:27;;;;;;;;;2.00;1.00;;;;;;;;5083617;27;61825;-75
2022/11/07 10:24:55;;;;;;;;;2.50;0.00;;;;;;;;5083648;28;61761;-75
2022/11/07 10:27:22;;;;;;;;;0.00;0.00;;;;;;;;5082834;28;61809;-75
2022/11/07 10:29:52;;;;;;;;;1.50;0.00;;;;;;;;5083216;28;62036;-75
2022/11/07 10:32:23;;;;;;;;;4.50;1.50;;;;;;;;5083490;27;61838;-76
2022/11/07 10:34:51;;;;;;;;;1.00;1.00;;;;;;;;5083374;27;61795;-75
2022/11/07 10:37:16;;;;;;;;;3.75;1.00;;;;;;;;5081552;28;61868;-75
2022/11/07 10:39:41;;;;;;;;;2.50;1.25;;;;;;;;5081691;28;61968;-75
2022/11/07 10:42:12;;;;;;;;;0.00;0.00;;;;;;;;5083579;28;61844;-75
2022/11/07 10:44:39;;;;;;;;;4.00;1.00;;;;;;;;5082349;27;62381;-75
2022/11/07 10:47:13;;;;;;;;;0.75;0.75;;;;;;;;5082017;27;61989;-75
2022/11/07 10:49:38;;;;;;;;;1.25;1.25;;;;;;;;5081781;27;61921;-75
2022/11/07 10:52:08;;;;;;;;;5.25;2.00;;;;;;;;5082997;27;62201;-76
2022/11/07 10:54:33;;;;;;;;;3.50;1.00;;;;;;;;5082015;27;62213;-75
2022/11/07 10:56:58;;;;;;;;;2.75;2.00;;;;;;;;5081941;28;62215;-75
2022/11/07 10:59:25;;;;;;;;;1.75;1.00;;;;;;;;5093687;27;61863;-75
2022/11/07 11:01:52;;;;;;;;;1.00;1.00;;;;;;;;5103565;27;61859;-75
2022/11/07 11:04:36;;;;;;;;;4.00;1.00;;;;;;;;5084494;27;61847;-75
2022/11/07 11:07:03;;;;;;;;;1.00;0.50;;;;;;;;5084613;27;61796;-75
2022/11/07 11:09:30;;;;;;;;;0.50;0.50;;;;;;;;5102683;27;62014;-75
2022/11/07 11:11:55;;;;;;;;;3.33;0.00;;;;;;;;5084937;27;62226;-75
2022/11/07 11:14:20;;;;;;;;;1.25;1.00;;;;;;;;5084806;27;61859;-75
2022/11/07 11:16:48;;;;;;;;;2.00;2.00;;;;;;;;5085172;27;62216;-75
2022/11/07 11:19:19;;;;;;;;;1.25;1.00;;;;;;;;5101755;27;61723;-75
2022/11/07 11:21:46;;;;;;;;;1.75;1.00;;;;;;;;5103387;27;61785;-75
2022/11/07 11:24:31;;;;;;;;;3.00;1.00;;;;;;;;5102862;27;61905;-76
2022/11/07 11:27:08;;;;;;;;;1.00;1.00;;;;;;;;5084170;27;61805;-75
2022/11/07 11:29:46;;;;;;;;;2.50;1.50;;;;;;;;5084165;27;64624;-75
2022/11/07 11:32:41;;;;;;;;;1.75;1.75;;;;;;;;5103197;27;61815;-75
2022/11/07 11:35:06;;;;;;;;;3.00;1.25;;;;;;;;5066562;27;61911;-75
2022/11/07 11:37:34;;;;;;;;;4.00;1.00;;;;;;;;5084463;27;61918;-76
2022/11/07 11:40:03;;;;;;;;;5.00;1.25;;;;;;;;5084011;27;63214;-75
2022/11/07 11:42:47;;;;;;;;;1.75;0.75;;;;;;;;5084230;27;61858;-75
2022/11/07 11:45:18;;;;;;;;;2.00;1.00;;;;;;;;5084614;27;62211;-75
2022/11/07 11:47:53;;;;;;;;;2.33;1.33;;;;;;;;5083918;27;62160;-75
2022/11/07 11:50:23;;;;;;;;;2.00;1.00;;;;;;;;5101710;27;62868;-75
2022/11/07 11:52:48;;;;;;;;;1.75;1.25;;;;;;;;5102698;27;61851;-75
2022/11/07 11:55:15;;;;;;;;;3.00;1.33;;;;;;;;5103006;27;61843;-76
2022/11/07 11:57:43;;;;;;;;;2.50;1.50;;;;;;;;5102814;27;61812;-75
2022/11/07 12:00:16;;;;;;;;;1.75;1.00;;;;;;;;5101982;27;61996;-75
2022/11/07 12:02:49;;;;;;;;;0.33;0.33;;;;;;;;5102217;27;61669;-75
2022/11/07 12:05:33;;;;;;;;;2.00;0.00;;;;;;;;5084231;27;61990;-75
2022/11/07 12:08:07;;;;;;;;;2.25;1.00;;;;;;;;5102394;27;61951;-75
2022/11/07 12:10:32;;;;;;;;;1.25;1.25;;;;;;;;5083005;27;63767;-75
2022/11/07 12:13:00;;;;;;;;;0.67;0.67;;;;;;;;5102603;27;61895;-75
2022/11/07 12:15:34;;;;;;;;;2.33;1.00;;;;;;;;5102368;27;61799;-76
2022/11/07 12:18:08;;;;;;;;;0.00;0.00;;;;;;;;5102224;27;61709;-76
2022/11/07 12:20:49;;;;;;;;;1.33;1.00;;;;;;;;5101294;27;61650;-76
2022/11/07 12:23:23;;;;;;;;;0.00;0.00;;;;;;;;5101949;27;61789;-75
2022/11/07 12:26:00;;;;;;;;;5.67;1.00;;;;;;;;5102050;27;61697;-75
2022/11/07 12:28:44;;;;;;;;;2.33;1.00;;;;;;;;5101914;27;61751;-76
2022/11/07 12:31:18;;;;;;;;;1.00;1.00;;;;;;;;5101256;27;62267;-75
2022/11/07 12:33:52;;;;;;;;;4.00;1.67;;;;;;;;5102203;27;61756;-75
2022/11/07 12:36:28;;;;;;;;;2.00;0.67;;;;;;;;5102268;27;61949;-76
2022/11/07 12:38:59;;;;;;;;;1.00;0.00;;;;;;;;5102325;27;61865;-75
2022/11/07 12:41:39;;;;;;;;;5.00;1.67;;;;;;;;5082758;27;62546;-76
2022/11/07 12:44:23;;;;;;;;;1.00;1.00;;;;;;;;5102165;27;61721;-75
2022/11/07 12:46:59;;;;;;;;;1.00;1.00;;;;;;;;5101316;27;61937;-76
2022/11/07 12:49:25;;;;;;;;;0.33;0.00;;;;;;;;5101991;27;61856;-75
2022/11/07 12:52:08;;;;;;;;;0.00;0.00;;;;;;;;5104009;27;61876;-76
2022/11/07 12:54:48;;;;;;;;;1.33;0.33;;;;;;;;5105319;27;62011;-75
2022/11/07 12:57:17;;;;;;;;;2.00;1.33;;;;;;;;5105606;27;61812;-75
2022/11/07 12:59:46;;;;;;;;;2.67;1.00;;;;;;;;5104816;27;61868;-75
2022/11/07 13:02:34;;;;;;;;;1.00;1.00;;;;;;;;5086666;27;64393;-75
2022/11/07 13:05:18;;;;;;;;;2.67;0.33;;;;;;;;5005292;28;61945;-75
2022/11/07 13:07:59;;;;;;;;;1.00;0.00;;;;;;;;5021325;28;61808;-75
2022/11/07 13:10:37;;;;;;;;;0.33;0.00;;;;;;;;5021949;28;61854;-76
2022/11/07 13:13:18;;;;;;;;;1.00;0.00;;;;;;;;5021421;28;61887;-75
2022/11/07 13:15:44;;;;;;;;;2.33;1.00;;;;;;;;5021334;28;61815;-75
2022/11/07 13:18:27;;;;;;;;;2.00;1.00;;;;;;;;5005376;28;62079;-76
2022/11/07 13:21:03;;;;;;;;;4.67;0.33;;;;;;;;5022178;28;61991;-76
2022/11/07 13:23:28;;;;;;;;;6.00;1.67;;;;;;;;5020880;28;61842;-76
2022/11/07 13:25:58;;;;;;;;;2.33;0.00;;;;;;;;5004959;28;61949;-76
2022/11/07 13:28:25;;;;;;;;;2.00;1.00;;;;;;;;5021331;28;62134;-76
2022/11/07 13:30:54;;;;;;;;;2.00;1.00;;;;;;;;5004831;28;62463;-76
2022/11/07 13:33:27;;;;;;;;;1.67;0.00;;;;;;;;5021078;28;61973;-75
2022/11/07 13:35:54;;;;;;;;;0.33;0.33;;;;;;;;5004578;28;61740;-75
2022/11/07 13:38:22;;;;;;;;;1.67;0.67;;;;;;;;5021320;28;62240;-75
2022/11/07 13:41:13;;;;;;;;;0.00;0.00;;;;;;;;5004767;28;62268;-76
2022/11/07 13:43:51;;;;;;;;;1.00;0.00;;;;;;;;5101316;27;62878;-75
2022/11/07 13:46:20;;;;;;;;;3.00;0.00;;;;;;;;5086344;27;62092;-75
2022/11/07 13:48:47;;;;;;;;;1.67;0.67;;;;;;;;5104227;27;61708;-76
2022/11/07 13:51:27;;;;;;;;;2.00;0.33;;;;;;;;5104835;27;61938;-75
2022/11/07 13:53:59;;;;;;;;;0.00;0.00;;;;;;;;5103314;27;61784;-75
2022/11/07 13:56:31;;;;;;;;;3.67;0.67;;;;;;;;5085261;27;61866;-76
2022/11/07 13:58:58;;;;;;;;;0.00;0.00;;;;;;;;5082415;27;61864;-76
2022/11/07 14:01:23;;;;;;;;;2.33;0.67;;;;;;;;5104110;27;61747;-75
2022/11/07 14:03:48;;;;;;;;;1.00;0.67;;;;;;;;5084004;27;62207;-75
2022/11/07 14:06:15;;;;;;;;;0.00;0.00;;;;;;;;5103703;27;62032;-75
2022/11/07 14:08:43;;;;;;;;;0.00;0.00;;;;;;;;5084669;27;62116;-76
2022/11/07 14:11:19;;;;;;;;;0.00;0.00;;;;;;;;5103279;27;61859;-76
2022/11/07 14:13:46;;;;;;;;;0.33;0.00;;;;;;;;5083898;27;63639;-76
2022/11/07 14:16:19;;;;;;;;;3.00;1.33;;;;;;;;5085848;27;61863;-75
2022/11/07 14:18:48;;;;;;;;;2.67;0.00;;;;;;;;5099309;27;62127;-76
2022/11/07 14:21:17;;;;;;;;;1.00;1.00;;;;;;;;5101857;27;61775;-76
2022/11/07 14:23:43;;;;;;;;;4.33;2.00;;;;;;;;5102653;27;62928;-76
2022/11/07 14:26:22;;;;;;;;;1.33;0.67;;;;;;;;5104047;27;61958;-76
2022/11/07 14:28:48;;;;;;;;;3.33;0.00;;;;;;;;5103380;27;62103;-76
2022/11/07 14:31:18;;;;;;;;;1.67;0.00;;;;;;;;5102596;27;62073;-75
2022/11/07 14:33:50;;;;;;;;;0.00;0.00;;;;;;;;5102843;27;62681;-76
2022/11/07 14:36:15;;;;;;;;;1.33;0.67;;;;;;;;5103526;27;61857;-75
2022/11/07 14:38:51;;;;;;;;;5.00;2.00;;;;;;;;5103213;27;61782;-76
2022/11/07 14:41:17;;;;;;;;;0.33;0.00;;;;;;;;5103514;27;61982;-75
2022/11/07 14:43:43;;;;;;;;;0.67;0.67;;;;;;;;5102334;27;61874;-76
2022/11/07 14:46:14;;;;;;;;;1.33;0.33;;;;;;;;5103600;27;61953;-76
2022/11/07 14:48:40;;;;;;;;;2.00;1.33;;;;;;;;5102352;27;62018;-76
2022/11/07 14:51:05;;;;;;;;;1.00;1.00;;;;;;;;5084008;27;62073;-76
2022/11/07 14:53:35;;;;;;;;;10.00;3.00;;;;;;;;5102352;27;61855;-76
2022/11/07 14:56:02;;;;;;;;;2.67;1.00;;;;;;;;5102738;27;61820;-76
2022/11/07 14:58:29;;;;;;;;;1.33;1.00;;;;;;;;5084898;27;62196;-76
2022/11/07 15:01:06;;;;;;;;;2.00;1.00;;;;;;;;5084866;27;61996;-76
2022/11/07 15:03:33;;;;;;;;;1.00;1.00;;;;;;;;5102256;27;61956;-76